Time;durP1;ratioP1;P1;durP2;ratioP2;P2;SDS_P1;SDS_P2;PMS_P1;PMS_P2;Temp;Humidity;BMP_temperature;BMP_pressure;BME280_temperature;BME280_humidity;BME280_pressure;Samples;Min_cycle;Max_cycle;Signal;HPM_P1;HPM_P2
2023/04/08 00:00:31;;;;;;;19.27;18.08;;;;;;;;;;5048624;28;20025;-63
2023/04/08 00:02:56;;;;;;;19.10;17.90;;;;;;;;;;5061589;28;20096;-62
2023/04/08 00:05:21;;;;;;;19.02;17.90;;;;;;;;;;5054740;28;20472;-63
2023/04/08 00:07:47;;;;;;;19.35;18.15;;;;;;;;;;5054313;28;20047;-62
2023/04/08 00:10:12;;;;;;;20.92;19.42;;;;;;;;;;5053002;28;20094;-62
2023/04/08 00:12:37;;;;;;;19.65;18.55;;;;;;;;;;5054583;28;20024;-62
2023/04/08 00:15:03;;;;;;;19.52;18.52;;;;;;;;;;5037699;28;20025;-62
2023/04/08 00:17:28;;;;;;;19.77;18.67;;;;;;;;;;5051843;28;20087;-62
2023/04/08 00:19:54;;;;;;;20.23;19.05;;;;;;;;;;5059049;28;20017;-62
2023/04/08 00:22:20;;;;;;;20.52;19.35;;;;;;;;;;5054384;28;20021;-63
2023/04/08 00:24:45;;;;;;;21.08;19.88;;;;;;;;;;5054206;28;20021;-62
2023/04/08 00:27:10;;;;;;;21.30;20.00;;;;;;;;;;5051112;28;20029;-62
2023/04/08 00:29:35;;;;;;;22.33;20.92;;;;;;;;;;5052313;28;20445;-62
2023/04/08 00:32:02;;;;;;;22.33;21.00;;;;;;;;;;5054164;28;20013;-63
2023/04/08 00:34:27;;;;;;;21.83;20.52;;;;;;;;;;5054293;28;20017;-62
2023/04/08 00:36:52;;;;;;;23.27;21.80;;;;;;;;;;5054013;28;20013;-64
2023/04/08 00:39:18;;;;;;;22.50;21.05;;;;;;;;;;5052675;28;20035;-63
2023/04/08 00:41:43;;;;;;;21.45;20.25;;;;;;;;;;5049248;28;20384;-63
2023/04/08 00:44:09;;;;;;;21.83;20.58;;;;;;;;;;5049919;28;20063;-63
2023/04/08 00:46:35;;;;;;;21.25;20.05;;;;;;;;;;5053910;28;20531;-63
2023/04/08 00:49:01;;;;;;;20.98;19.80;;;;;;;;;;5052649;28;20399;-62
2023/04/08 00:51:30;;;;;;;21.50;20.23;;;;;;;;;;5054134;28;20020;-63
2023/04/08 00:53:55;;;;;;;20.90;19.65;;;;;;;;;;5060482;28;20064;-63
2023/04/08 00:56:21;;;;;;;21.25;19.95;;;;;;;;;;5029647;28;20053;-62
2023/04/08 00:58:47;;;;;;;21.58;20.20;;;;;;;;;;5041720;28;20039;-63
2023/04/08 01:01:32;;;;;;;20.50;19.30;;;;;;;;;;5054133;28;20028;-63
2023/04/08 01:04:06;;;;;;;20.63;19.48;;;;;;;;;;5047887;28;20032;-62
2023/04/08 01:06:50;;;;;;;20.38;19.17;;;;;;;;;;5054133;28;20017;-64
2023/04/08 01:09:17;;;;;;;19.67;18.65;;;;;;;;;;5054888;28;20082;-62
2023/04/08 01:11:43;;;;;;;20.25;19.05;;;;;;;;;;5055403;28;20025;-63
2023/04/08 01:14:10;;;;;;;19.77;18.77;;;;;;;;;;5052513;28;20017;-63
2023/04/08 01:16:39;;;;;;;19.30;18.30;;;;;;;;;;5052558;28;20044;-62
2023/04/08 01:19:07;;;;;;;19.60;18.55;;;;;;;;;;5043045;28;20036;-63
2023/04/08 01:21:32;;;;;;;19.75;18.65;;;;;;;;;;5052705;28;20024;-62
2023/04/08 01:24:01;;;;;;;20.50;19.30;;;;;;;;;;5052977;28;20017;-61
2023/04/08 01:26:26;;;;;;;20.27;19.10;;;;;;;;;;5053646;28;20020;-63
2023/04/08 01:28:56;;;;;;;21.45;20.02;;;;;;;;;;5061113;28;20032;-62
2023/04/08 01:31:22;;;;;;;19.63;18.52;;;;;;;;;;5051551;28;20025;-62
2023/04/08 01:33:49;;;;;;;20.20;19.00;;;;;;;;;;5052931;28;20053;-63
2023/04/08 01:36:15;;;;;;;20.30;19.10;;;;;;;;;;5052038;28;20087;-63
2023/04/08 01:38:41;;;;;;;21.30;20.00;;;;;;;;;;5051622;28;20012;-62
2023/04/08 01:41:07;;;;;;;21.55;20.10;;;;;;;;;;5052691;28;20025;-61
2023/04/08 01:43:34;;;;;;;20.45;19.35;;;;;;;;;;5053681;28;20119;-63
2023/04/08 01:46:00;;;;;;;20.30;19.15;;;;;;;;;;5048992;28;20017;-62
2023/04/08 01:48:25;;;;;;;19.77;18.77;;;;;;;;;;5047440;28;20108;-62
2023/04/08 01:50:52;;;;;;;20.83;19.73;;;;;;;;;;5048086;28;20021;-63
2023/04/08 01:53:17;;;;;;;20.25;19.15;;;;;;;;;;5049006;28;20021;-64
2023/04/08 01:55:44;;;;;;;20.70;19.50;;;;;;;;;;5051692;28;20123;-62
2023/04/08 01:58:11;;;;;;;19.63;18.63;;;;;;;;;;5052399;28;20056;-63
2023/04/08 02:00:37;;;;;;;20.45;19.25;;;;;;;;;;5052872;28;20337;-62
2023/04/08 02:03:04;;;;;;;21.20;19.90;;;;;;;;;;5046202;28;20397;-62
2023/04/08 02:05:29;;;;;;;22.58;21.17;;;;;;;;;;5046560;28;20013;-62
2023/04/08 02:07:55;;;;;;;23.00;21.50;;;;;;;;;;5039656;28;20032;-62
2023/04/08 02:10:20;;;;;;;23.13;21.60;;;;;;;;;;5052410;28;20503;-62
2023/04/08 02:12:46;;;;;;;22.65;21.23;;;;;;;;;;5042243;28;20029;-63
2023/04/08 02:15:11;;;;;;;22.77;21.38;;;;;;;;;;5051586;28;20488;-63
2023/04/08 02:17:51;;;;;;;21.67;20.38;;;;;;;;;;5054677;28;20032;-62
2023/04/08 02:20:25;;;;;;;22.30;20.90;;;;;;;;;;5043331;28;20017;-62
2023/04/08 02:23:07;;;;;;;20.95;19.75;;;;;;;;;;5051269;28;20104;-61
2023/04/08 02:25:34;;;;;;;20.80;19.65;;;;;;;;;;5051918;28;20029;-62
2023/04/08 02:28:01;;;;;;;21.15;19.88;;;;;;;;;;5049370;28;20971;-62
2023/04/08 02:30:27;;;;;;;20.50;19.38;;;;;;;;;;5041488;28;20025;-63
2023/04/08 02:32:53;;;;;;;20.52;19.33;;;;;;;;;;5050991;28;20028;-62
2023/04/08 02:35:19;;;;;;;21.98;20.58;;;;;;;;;;5047740;28;20017;-62
2023/04/08 02:37:45;;;;;;;21.65;20.25;;;;;;;;;;5049369;28;20488;-62
2023/04/08 02:40:27;;;;;;;20.38;19.17;;;;;;;;;;5051794;28;20049;-63
2023/04/08 02:42:53;;;;;;;20.13;18.95;;;;;;;;;;5051518;28;20032;-62
2023/04/08 02:45:18;;;;;;;21.90;20.50;;;;;;;;;;5049847;28;20021;-63
2023/04/08 02:47:43;;;;;;;21.70;20.42;;;;;;;;;;5051119;28;20099;-62
2023/04/08 02:50:09;;;;;;;21.10;20.05;;;;;;;;;;5048928;28;20027;-62
2023/04/08 02:52:34;;;;;;;21.50;20.20;;;;;;;;;;5047770;28;20033;-62
2023/04/08 02:55:00;;;;;;;21.73;20.38;;;;;;;;;;5050835;28;20013;-61
2023/04/08 02:57:25;;;;;;;21.63;20.42;;;;;;;;;;5050131;28;20040;-63
2023/04/08 02:59:50;;;;;;;21.05;19.90;;;;;;;;;;5051505;28;20703;-62
2023/04/08 03:02:16;;;;;;;22.20;20.90;;;;;;;;;;5051320;28;20108;-62
2023/04/08 03:04:41;;;;;;;23.05;21.65;;;;;;;;;;5051632;28;20009;-62
2023/04/08 03:07:07;;;;;;;22.58;21.23;;;;;;;;;;5033785;28;20461;-62
2023/04/08 03:09:33;;;;;;;22.90;21.45;;;;;;;;;;5051486;28;20051;-61
2023/04/08 03:11:58;;;;;;;22.55;21.15;;;;;;;;;;5044461;28;20017;-63
2023/04/08 03:14:24;;;;;;;21.25;20.05;;;;;;;;;;5054838;28;20092;-63
2023/04/08 03:16:49;;;;;;;22.20;20.90;;;;;;;;;;5042485;28;20366;-62
2023/04/08 03:19:15;;;;;;;21.58;20.45;;;;;;;;;;5047716;28;20112;-62
2023/04/08 03:21:40;;;;;;;21.88;20.58;;;;;;;;;;5051193;28;20765;-62
2023/04/08 03:24:05;;;;;;;20.92;19.73;;;;;;;;;;5038160;28;20025;-63
2023/04/08 03:26:31;;;;;;;19.85;18.75;;;;;;;;;;5056974;28;20431;-63
2023/04/08 03:28:56;;;;;;;20.70;19.48;;;;;;;;;;5050379;28;20028;-63
2023/04/08 03:31:21;;;;;;;20.35;19.15;;;;;;;;;;5042621;28;20020;-63
2023/04/08 03:33:47;;;;;;;20.73;19.42;;;;;;;;;;5051568;28;20413;-63
2023/04/08 03:36:12;;;;;;;20.27;19.08;;;;;;;;;;5056481;28;20492;-62
2023/04/08 03:38:37;;;;;;;19.92;18.73;;;;;;;;;;5049749;28;20017;-62
2023/04/08 03:41:02;;;;;;;19.67;18.48;;;;;;;;;;5051538;28;20067;-63
2023/04/08 03:43:28;;;;;;;19.67;18.55;;;;;;;;;;5056267;28;20037;-62
2023/04/08 03:45:54;;;;;;;19.38;18.27;;;;;;;;;;5052899;28;20451;-62
2023/04/08 03:48:19;;;;;;;19.20;18.05;;;;;;;;;;5054700;28;20028;-62
2023/04/08 03:50:45;;;;;;;19.00;18.00;;;;;;;;;;5054851;28;20021;-63
2023/04/08 03:53:11;;;;;;;19.42;18.27;;;;;;;;;;5054661;28;20021;-63
2023/04/08 03:55:36;;;;;;;19.55;18.35;;;;;;;;;;5054047;28;20096;-63
2023/04/08 03:58:01;;;;;;;19.45;18.25;;;;;;;;;;5046316;28;20633;-63
2023/04/08 04:00:27;;;;;;;20.65;19.25;;;;;;;;;;5064328;28;20023;-63
2023/04/08 04:02:52;;;;;;;21.13;19.65;;;;;;;;;;5056301;28;20023;-63
2023/04/08 04:05:17;;;;;;;21.08;19.65;;;;;;;;;;5049007;28;20027;-63
2023/04/08 04:07:43;;;;;;;19.55;18.35;;;;;;;;;;5057311;28;20032;-62
2023/04/08 04:10:09;;;;;;;19.27;18.08;;;;;;;;;;5065999;28;20035;-62
2023/04/08 04:12:35;;;;;;;18.77;17.77;;;;;;;;;;5059629;28;20028;-62
2023/04/08 04:15:00;;;;;;;18.85;17.75;;;;;;;;;;5060541;28;20029;-62
2023/04/08 04:17:25;;;;;;;18.60;17.58;;;;;;;;;;5064525;28;20025;-62
2023/04/08 04:19:51;;;;;;;19.73;18.42;;;;;;;;;;5048004;28;20109;-62
2023/04/08 04:22:17;;;;;;;19.35;18.15;;;;;;;;;;5049777;28;20108;-62
2023/04/08 04:24:45;;;;;;;19.73;18.42;;;;;;;;;;5053546;28;20025;-62
2023/04/08 04:27:11;;;;;;;20.23;18.92;;;;;;;;;;5065327;28;20083;-62
2023/04/08 04:29:36;;;;;;;19.65;18.45;;;;;;;;;;5054024;28;20052;-63
2023/04/08 04:32:01;;;;;;;19.38;18.17;;;;;;;;;;5053464;28;20044;-63
2023/04/08 04:34:26;;;;;;;19.50;18.23;;;;;;;;;;5054281;28;20028;-63
2023/04/08 04:36:52;;;;;;;19.58;18.38;;;;;;;;;;5058607;28;20020;-62
2023/04/08 04:39:17;;;;;;;17.90;16.95;;;;;;;;;;5055463;28;20025;-62
2023/04/08 04:41:43;;;;;;;18.30;17.30;;;;;;;;;;5052489;28;20029;-62
2023/04/08 04:44:08;;;;;;;18.75;17.65;;;;;;;;;;5062989;28;20017;-62
2023/04/08 04:46:34;;;;;;;19.35;18.17;;;;;;;;;;5058530;28;20643;-63
2023/04/08 04:48:59;;;;;;;17.92;17.00;;;;;;;;;;5048957;28;20375;-62
2023/04/08 04:51:26;;;;;;;19.27;18.05;;;;;;;;;;5060039;28;20055;-63
2023/04/08 04:53:51;;;;;;;18.40;17.30;;;;;;;;;;5054465;28;20100;-63
2023/04/08 04:56:16;;;;;;;17.85;16.92;;;;;;;;;;5061094;28;20178;-63
2023/04/08 04:58:42;;;;;;;18.70;17.60;;;;;;;;;;5050616;28;20029;-63
2023/04/08 05:01:07;;;;;;;18.35;17.25;;;;;;;;;;5046925;28;20028;-63
2023/04/08 05:03:32;;;;;;;17.80;16.80;;;;;;;;;;5052431;28;20108;-63
2023/04/08 05:05:58;;;;;;;18.60;17.50;;;;;;;;;;5048280;28;20053;-63
2023/04/08 05:08:23;;;;;;;18.48;17.38;;;;;;;;;;5050504;28;20036;-63
2023/04/08 05:10:51;;;;;;;17.90;16.90;;;;;;;;;;5050771;28;20020;-63
2023/04/08 05:13:17;;;;;;;17.70;16.80;;;;;;;;;;5055376;28;20060;-62
2023/04/08 05:15:44;;;;;;;19.58;18.25;;;;;;;;;;5050952;28;20468;-63
2023/04/08 05:18:09;;;;;;;18.48;17.38;;;;;;;;;;5053030;28;20472;-65
2023/04/08 05:20:35;;;;;;;18.23;17.13;;;;;;;;;;5052783;28;20108;-63
2023/04/08 05:23:00;;;;;;;18.48;17.38;;;;;;;;;;5041470;28;20028;-63
2023/04/08 05:25:25;;;;;;;19.20;17.90;;;;;;;;;;5058713;28;20027;-62
2023/04/08 05:27:51;;;;;;;18.98;17.77;;;;;;;;;;5047148;28;20029;-62
2023/04/08 05:30:17;;;;;;;19.48;18.17;;;;;;;;;;5053004;28;20495;-62
2023/04/08 05:32:42;;;;;;;18.23;17.15;;;;;;;;;;5052634;28;20021;-63
2023/04/08 05:35:08;;;;;;;18.38;17.27;;;;;;;;;;5052800;28;20112;-62
2023/04/08 05:37:33;;;;;;;17.98;16.90;;;;;;;;;;5054957;28;20028;-62
2023/04/08 05:39:59;;;;;;;18.52;17.40;;;;;;;;;;5052775;28;20538;-62
2023/04/08 05:42:24;;;;;;;18.23;17.13;;;;;;;;;;5052741;28;20016;-62
2023/04/08 05:44:49;;;;;;;17.27;16.38;;;;;;;;;;5047405;28;20024;-62
2023/04/08 05:47:15;;;;;;;17.60;16.60;;;;;;;;;;5047875;28;20469;-62
2023/04/08 05:49:40;;;;;;;17.48;16.48;;;;;;;;;;5042715;28;20053;-61
2023/04/08 05:52:06;;;;;;;17.95;16.85;;;;;;;;;;5052331;28;20009;-61
2023/04/08 05:54:31;;;;;;;18.73;17.52;;;;;;;;;;5049995;28;20025;-61
2023/04/08 05:56:56;;;;;;;17.48;16.48;;;;;;;;;;5046191;28;20098;-62
2023/04/08 05:59:22;;;;;;;17.30;16.40;;;;;;;;;;5051759;28;20021;-62
2023/04/08 06:01:47;;;;;;;18.02;17.02;;;;;;;;;;5042660;28;20025;-62
2023/04/08 06:04:12;;;;;;;17.70;16.70;;;;;;;;;;5052395;28;20357;-62
2023/04/08 06:06:38;;;;;;;17.85;16.85;;;;;;;;;;5052096;28;20055;-61
2023/04/08 06:09:04;;;;;;;18.45;17.35;;;;;;;;;;5051902;28;20035;-61
2023/04/08 06:11:29;;;;;;;18.25;17.15;;;;;;;;;;5052268;28;20021;-61
2023/04/08 06:13:55;;;;;;;17.88;16.88;;;;;;;;;;5052723;28;20017;-61
2023/04/08 06:16:20;;;;;;;18.95;17.75;;;;;;;;;;5052075;28;20108;-61
2023/04/08 06:18:46;;;;;;;17.83;16.83;;;;;;;;;;5044123;28;20017;-62
2023/04/08 06:21:11;;;;;;;18.70;17.50;;;;;;;;;;5050660;28;20484;-61
2023/04/08 06:23:36;;;;;;;19.63;18.25;;;;;;;;;;5049490;28;20095;-62
2023/04/08 06:26:03;;;;;;;18.70;17.50;;;;;;;;;;5050517;28;20370;-63
2023/04/08 06:28:29;;;;;;;18.17;17.05;;;;;;;;;;5051645;28;20495;-60
2023/04/08 06:30:55;;;;;;;18.38;17.27;;;;;;;;;;5052540;28;20033;-62
2023/04/08 06:33:20;;;;;;;17.45;16.50;;;;;;;;;;5051703;28;20492;-63
2023/04/08 06:35:46;;;;;;;18.15;17.05;;;;;;;;;;5051088;28;20100;-62
2023/04/08 06:38:11;;;;;;;17.27;16.38;;;;;;;;;;5048053;28;20116;-64
2023/04/08 06:40:38;;;;;;;17.10;16.20;;;;;;;;;;5050503;28;20028;-62
2023/04/08 06:43:03;;;;;;;18.13;17.02;;;;;;;;;;5047891;28;20291;-62
2023/04/08 06:45:28;;;;;;;18.00;16.90;;;;;;;;;;5048024;28;20468;-63
2023/04/08 06:47:55;;;;;;;18.73;17.48;;;;;;;;;;5041704;28;20112;-62
2023/04/08 06:50:20;;;;;;;18.13;17.02;;;;;;;;;;5041587;28;20448;-62
2023/04/08 06:52:46;;;;;;;18.27;17.10;;;;;;;;;;5044479;28;20033;-62
2023/04/08 06:55:11;;;;;;;17.60;16.60;;;;;;;;;;5051226;28;20035;-62
2023/04/08 06:57:37;;;;;;;17.15;16.25;;;;;;;;;;5051404;28;20517;-63
2023/04/08 07:00:03;;;;;;;17.20;16.20;;;;;;;;;;5047619;28;20029;-62
2023/04/08 07:02:28;;;;;;;18.58;17.35;;;;;;;;;;5037429;28;20010;-62
2023/04/08 07:04:53;;;;;;;17.80;16.70;;;;;;;;;;5040483;28;20022;-62
2023/04/08 07:07:19;;;;;;;17.10;16.10;;;;;;;;;;5044495;28;20694;-62
2023/04/08 07:09:45;;;;;;;18.30;17.10;;;;;;;;;;5036082;28;20473;-62
2023/04/08 07:12:13;;;;;;;18.80;17.52;;;;;;;;;;5048640;28;20384;-62
2023/04/08 07:14:39;;;;;;;16.73;15.77;;;;;;;;;;5047774;28;20049;-61
2023/04/08 07:17:04;;;;;;;18.05;16.88;;;;;;;;;;5038218;28;20049;-61
2023/04/08 07:19:30;;;;;;;18.15;16.95;;;;;;;;;;5044534;28;20062;-62
2023/04/08 07:21:56;;;;;;;18.88;17.58;;;;;;;;;;5042373;28;20071;-61
2023/04/08 07:24:22;;;;;;;17.38;16.38;;;;;;;;;;5043226;28;20025;-62
2023/04/08 07:26:48;;;;;;;18.00;16.90;;;;;;;;;;5045562;28;20155;-62
2023/04/08 07:29:13;;;;;;;18.05;16.95;;;;;;;;;;5044745;28;20029;-61
2023/04/08 07:31:39;;;;;;;18.48;17.27;;;;;;;;;;5049591;28;20021;-61
2023/04/08 07:34:04;;;;;;;17.80;16.70;;;;;;;;;;5048512;28;20020;-62
2023/04/08 07:36:29;;;;;;;19.50;18.20;;;;;;;;;;5049091;28;20032;-61
2023/04/08 07:38:55;;;;;;;20.83;19.33;;;;;;;;;;5043017;28;20036;-61
2023/04/08 07:41:20;;;;;;;19.02;17.92;;;;;;;;;;5044348;28;20024;-61
2023/04/08 07:43:46;;;;;;;17.35;16.33;;;;;;;;;;5046180;28;20017;-61
2023/04/08 07:46:11;;;;;;;20.88;19.38;;;;;;;;;;5035805;28;20056;-62
2023/04/08 07:48:37;;;;;;;17.83;16.83;;;;;;;;;;5049117;28;20017;-62
2023/04/08 07:51:06;;;;;;;18.15;17.15;;;;;;;;;;5051063;28;20108;-62
2023/04/08 07:53:33;;;;;;;18.80;17.80;;;;;;;;;;5050702;28;20033;-63
2023/04/08 07:55:58;;;;;;;18.33;17.20;;;;;;;;;;5051276;28;20104;-62
2023/04/08 07:58:24;;;;;;;17.65;16.70;;;;;;;;;;5050299;28;20140;-61
2023/04/08 08:00:49;;;;;;;19.35;18.15;;;;;;;;;;5049889;28;20059;-63
2023/04/08 08:03:15;;;;;;;19.50;18.30;;;;;;;;;;5049744;28;20426;-62
2023/04/08 08:05:40;;;;;;;19.83;18.52;;;;;;;;;;5034172;28;20025;-61
2023/04/08 08:08:06;;;;;;;19.33;18.13;;;;;;;;;;5050613;28;20028;-62
2023/04/08 08:10:32;;;;;;;18.40;17.38;;;;;;;;;;5048233;28;20060;-60
2023/04/08 08:12:57;;;;;;;20.38;19.08;;;;;;;;;;5048436;28;20025;-62
2023/04/08 08:15:22;;;;;;;20.33;19.02;;;;;;;;;;5049098;28;20033;-62
2023/04/08 08:17:48;;;;;;;20.92;19.52;;;;;;;;;;5053664;28;20033;-63
2023/04/08 08:20:13;;;;;;;19.25;18.15;;;;;;;;;;5052469;28;20507;-61
2023/04/08 08:22:38;;;;;;;19.23;18.08;;;;;;;;;;5055720;28;20021;-62
2023/04/08 08:25:04;;;;;;;19.77;18.58;;;;;;;;;;5050776;28;20052;-63
2023/04/08 08:27:30;;;;;;;19.10;18.00;;;;;;;;;;5051467;28;20104;-63
2023/04/08 08:29:55;;;;;;;19.10;18.00;;;;;;;;;;5046856;28;20018;-61
2023/04/08 08:32:21;;;;;;;19.58;18.42;;;;;;;;;;5050485;28;20033;-61
2023/04/08 08:34:46;;;;;;;18.92;17.83;;;;;;;;;;5042681;28;20017;-61
2023/04/08 08:37:12;;;;;;;18.70;17.60;;;;;;;;;;5052702;28;20074;-60
2023/04/08 08:39:37;;;;;;;18.92;17.83;;;;;;;;;;5045555;28;20075;-62
2023/04/08 08:42:02;;;;;;;18.45;17.40;;;;;;;;;;5052353;28;20392;-60
2023/04/08 08:44:29;;;;;;;19.77;18.50;;;;;;;;;;5047651;28;20104;-60
2023/04/08 08:46:54;;;;;;;19.77;18.52;;;;;;;;;;5049728;28;20148;-60
2023/04/08 08:49:20;;;;;;;20.05;18.75;;;;;;;;;;5048330;28;20450;-59
2023/04/08 08:51:46;;;;;;;18.80;17.65;;;;;;;;;;5052627;28;20024;-59
2023/04/08 08:54:11;;;;;;;19.40;18.20;;;;;;;;;;5046523;28;20036;-59
2023/04/08 08:56:37;;;;;;;19.65;18.35;;;;;;;;;;5057308;28;20056;-61
2023/04/08 08:59:02;;;;;;;19.02;17.83;;;;;;;;;;5043797;28;20025;-61
2023/04/08 09:01:34;;;;;;;19.90;18.52;;;;;;;;;;5050432;28;20028;-60
2023/04/08 09:04:15;;;;;;;17.90;16.90;;;;;;;;;;5054785;28;20032;-60
2023/04/08 09:06:40;;;;;;;18.00;17.00;;;;;;;;;;5051985;28;20047;-60
2023/04/08 09:09:09;;;;;;;18.10;17.00;;;;;;;;;;5049242;28;20485;-60
2023/04/08 09:11:34;;;;;;;17.17;16.23;;;;;;;;;;5049847;28;20063;-60
2023/04/08 09:14:00;;;;;;;18.83;17.63;;;;;;;;;;5038818;28;20048;-60
2023/04/08 09:16:26;;;;;;;18.88;17.65;;;;;;;;;;5051441;28;20436;-60
2023/04/08 09:18:51;;;;;;;19.48;18.17;;;;;;;;;;5046487;28;20029;-60
2023/04/08 09:21:21;;;;;;;18.85;17.65;;;;;;;;;;5044200;28;20127;-61
2023/04/08 09:23:47;;;;;;;18.00;16.95;;;;;;;;;;5045753;28;20595;-61
2023/04/08 09:26:16;;;;;;;18.77;17.58;;;;;;;;;;5049189;28;20065;-61
2023/04/08 09:28:42;;;;;;;18.13;17.00;;;;;;;;;;5052703;28;20108;-65
2023/04/08 09:31:18;;;;;;;18.13;17.02;;;;;;;;;;5050617;28;20475;-61
2023/04/08 09:33:43;;;;;;;18.15;17.05;;;;;;;;;;5052511;28;20021;-61
2023/04/08 09:36:09;;;;;;;17.63;16.63;;;;;;;;;;5053092;28;20431;-61
2023/04/08 09:38:34;;;;;;;17.08;16.17;;;;;;;;;;5052856;28;20491;-60
2023/04/08 09:41:04;;;;;;;17.00;16.10;;;;;;;;;;5052550;28;20155;-60
2023/04/08 09:43:31;;;;;;;18.15;17.05;;;;;;;;;;5053175;28;20016;-60
2023/04/08 09:45:57;;;;;;;16.55;15.75;;;;;;;;;;5036897;28;20432;-60
2023/04/08 09:48:26;;;;;;;17.90;16.90;;;;;;;;;;5046579;28;20032;-60
2023/04/08 09:50:54;;;;;;;19.52;18.23;;;;;;;;;;5051730;28;20066;-61
2023/04/08 09:53:25;;;;;;;17.05;16.15;;;;;;;;;;5056696;28;20079;-61
2023/04/08 09:55:53;;;;;;;18.35;17.23;;;;;;;;;;5054566;28;20047;-60
2023/04/08 09:58:23;;;;;;;17.73;16.73;;;;;;;;;;5052680;28;20067;-61
2023/04/08 10:00:52;;;;;;;18.58;17.42;;;;;;;;;;5046526;28;20428;-61
2023/04/08 10:03:28;;;;;;;16.63;15.75;;;;;;;;;;5044854;28;20021;-60
2023/04/08 10:05:55;;;;;;;17.42;16.42;;;;;;;;;;5052965;28;20044;-60
2023/04/08 10:08:21;;;;;;;16.75;15.85;;;;;;;;;;5052655;28;20021;-60
2023/04/08 10:10:46;;;;;;;19.33;18.02;;;;;;;;;;5051833;28;20038;-61
2023/04/08 10:13:12;;;;;;;19.25;18.05;;;;;;;;;;5043849;28;20079;-61
2023/04/08 10:15:39;;;;;;;18.52;17.52;;;;;;;;;;5051304;28;20096;-64
2023/04/08 10:18:05;;;;;;;18.33;17.33;;;;;;;;;;5050400;28;20036;-61
2023/04/08 10:20:33;;;;;;;19.27;18.17;;;;;;;;;;5045753;28;20021;-61
2023/04/08 10:23:02;;;;;;;20.17;18.88;;;;;;;;;;5048095;28;20017;-60
2023/04/08 10:25:29;;;;;;;21.20;19.70;;;;;;;;;;5049229;28;20032;-60
2023/04/08 10:27:54;;;;;;;22.55;20.83;;;;;;;;;;5042404;28;20021;-63
2023/04/08 10:30:32;;;;;;;21.17;19.67;;;;;;;;;;5051327;28;20017;-61
2023/04/08 10:32:58;;;;;;;21.67;20.10;;;;;;;;;;5050265;28;20036;-62
2023/04/08 10:35:36;;;;;;;21.98;20.38;;;;;;;;;;5048440;28;20033;-62
2023/04/08 10:38:02;;;;;;;22.30;20.70;;;;;;;;;;5048819;28;20075;-64
2023/04/08 10:40:27;;;;;;;21.48;20.00;;;;;;;;;;5054117;28;20072;-62
2023/04/08 10:42:56;;;;;;;23.70;21.80;;;;;;;;;;5053503;28;20012;-64
2023/04/08 10:45:21;;;;;;;21.13;19.73;;;;;;;;;;5050244;28;20028;-64
2023/04/08 10:47:47;;;;;;;21.80;20.20;;;;;;;;;;5053956;28;20024;-64
2023/04/08 10:50:15;;;;;;;21.38;19.88;;;;;;;;;;5054958;28;20040;-63
2023/04/08 10:52:47;;;;;;;19.23;18.02;;;;;;;;;;5049540;28;20051;-62
2023/04/08 10:55:12;;;;;;;18.73;17.63;;;;;;;;;;5053058;28;20028;-64
2023/04/08 10:57:39;;;;;;;19.10;17.90;;;;;;;;;;5054968;28;20056;-64
2023/04/08 11:00:05;;;;;;;18.77;17.67;;;;;;;;;;5050903;28;20040;-62
2023/04/08 11:02:32;;;;;;;19.45;18.25;;;;;;;;;;5059663;28;20024;-63
2023/04/08 11:04:57;;;;;;;19.67;18.38;;;;;;;;;;5053134;28;20116;-63
2023/04/08 11:07:24;;;;;;;19.55;18.35;;;;;;;;;;5046447;28;20111;-62
2023/04/08 11:09:49;;;;;;;19.10;17.90;;;;;;;;;;5036296;28;20021;-62
2023/04/08 11:12:17;;;;;;;18.80;17.70;;;;;;;;;;5048958;28;20427;-62
2023/04/08 11:14:42;;;;;;;18.83;17.67;;;;;;;;;;5050575;28;20035;-61
2023/04/08 11:17:08;;;;;;;19.27;18.08;;;;;;;;;;5040829;28;20017;-60
2023/04/08 11:19:35;;;;;;;19.55;18.35;;;;;;;;;;5055113;28;20056;-62
2023/04/08 11:22:01;;;;;;;21.02;19.63;;;;;;;;;;5050553;28;20055;-62
2023/04/08 11:24:27;;;;;;;19.60;18.40;;;;;;;;;;5050634;28;20049;-61
2023/04/08 11:26:52;;;;;;;20.33;19.02;;;;;;;;;;5050920;28;20028;-63
2023/04/08 11:29:18;;;;;;;18.67;17.67;;;;;;;;;;5050849;28;20396;-63
2023/04/08 11:31:44;;;;;;;19.63;18.42;;;;;;;;;;5050879;28;20029;-62
2023/04/08 11:34:09;;;;;;;19.08;17.98;;;;;;;;;;5048432;28;20041;-62
2023/04/08 11:36:35;;;;;;;18.48;17.48;;;;;;;;;;5047271;28;20021;-62
2023/04/08 11:39:05;;;;;;;20.73;19.30;;;;;;;;;;5048644;28;20100;-61
2023/04/08 11:41:38;;;;;;;19.27;18.08;;;;;;;;;;5050009;28;20013;-62
2023/04/08 11:44:05;;;;;;;18.60;17.55;;;;;;;;;;5050680;28;20539;-62
2023/04/08 11:46:30;;;;;;;18.50;17.40;;;;;;;;;;5050326;28;20423;-62
2023/04/08 11:49:00;;;;;;;19.73;18.45;;;;;;;;;;5048096;28;20112;-62
2023/04/08 11:51:26;;;;;;;18.13;17.05;;;;;;;;;;5049610;28;20021;-61
2023/04/08 11:53:52;;;;;;;18.75;17.60;;;;;;;;;;5051087;28;20188;-62
2023/04/08 11:56:22;;;;;;;17.65;16.65;;;;;;;;;;5049819;28;20103;-62
2023/04/08 11:58:49;;;;;;;17.42;16.42;;;;;;;;;;5049658;28;20048;-62
2023/04/08 12:01:14;;;;;;;16.95;16.05;;;;;;;;;;5054813;28;20511;-62
2023/04/08 12:03:56;;;;;;;17.15;16.20;;;;;;;;;;5054696;28;20033;-62
2023/04/08 12:06:22;;;;;;;16.95;16.05;;;;;;;;;;5054804;28;20024;-62
2023/04/08 12:08:47;;;;;;;18.27;17.17;;;;;;;;;;5050663;28;20022;-62
2023/04/08 12:11:14;;;;;;;18.15;17.05;;;;;;;;;;5048311;28;20582;-60
2023/04/08 12:13:40;;;;;;;18.80;17.60;;;;;;;;;;5053447;28;20027;-60
2023/04/08 12:16:05;;;;;;;18.05;16.95;;;;;;;;;;5053160;28;20024;-61
2023/04/08 12:18:30;;;;;;;18.40;17.23;;;;;;;;;;5046417;28;20048;-60
2023/04/08 12:20:56;;;;;;;19.50;18.20;;;;;;;;;;5051649;28;20443;-59
2023/04/08 12:23:21;;;;;;;17.20;16.25;;;;;;;;;;5051684;28;20029;-60
2023/04/08 12:25:46;;;;;;;19.02;17.80;;;;;;;;;;5052534;28;20420;-60
2023/04/08 12:28:12;;;;;;;17.88;16.83;;;;;;;;;;5047018;28;20033;-61
2023/04/08 12:30:37;;;;;;;19.02;17.80;;;;;;;;;;5038224;28;20026;-60
2023/04/08 12:33:02;;;;;;;18.70;17.50;;;;;;;;;;5051289;28;20082;-60
2023/04/08 12:35:28;;;;;;;19.38;18.08;;;;;;;;;;5042480;28;20032;-60
2023/04/08 12:37:55;;;;;;;19.25;17.98;;;;;;;;;;5051966;28;20013;-60
2023/04/08 12:40:20;;;;;;;18.25;17.15;;;;;;;;;;5052160;28;20029;-62
2023/04/08 12:42:47;;;;;;;18.45;17.30;;;;;;;;;;5053473;28;20024;-62
2023/04/08 12:45:12;;;;;;;17.63;16.63;;;;;;;;;;5043201;28;20029;-64
2023/04/08 12:47:38;;;;;;;17.50;16.50;;;;;;;;;;5051180;28;20009;-63
2023/04/08 12:50:03;;;;;;;16.63;15.80;;;;;;;;;;5052100;28;20027;-69
2023/04/08 12:52:29;;;;;;;16.95;16.05;;;;;;;;;;5050660;28;20017;-62
2023/04/08 12:54:54;;;;;;;18.55;17.38;;;;;;;;;;5052119;28;20491;-62
2023/04/08 12:57:19;;;;;;;17.35;16.38;;;;;;;;;;5053422;28;20583;-63
2023/04/08 12:59:45;;;;;;;18.23;17.13;;;;;;;;;;5053275;28;20079;-63
2023/04/08 13:02:10;;;;;;;16.88;15.95;;;;;;;;;;5053638;28;20021;-62
2023/04/08 13:04:35;;;;;;;18.25;17.08;;;;;;;;;;5050355;28;20013;-63
2023/04/08 13:07:01;;;;;;;17.58;16.58;;;;;;;;;;5050444;28;20119;-62
2023/04/08 13:09:26;;;;;;;17.05;16.13;;;;;;;;;;5053400;28;20071;-64
2023/04/08 13:11:51;;;;;;;17.52;16.52;;;;;;;;;;5053666;28;20112;-63
2023/04/08 13:14:17;;;;;;;16.90;16.00;;;;;;;;;;5049812;28;20037;-63
2023/04/08 13:16:42;;;;;;;17.05;16.08;;;;;;;;;;5053249;28;20055;-64
2023/04/08 13:19:07;;;;;;;16.25;15.40;;;;;;;;;;5033992;28;20534;-63
2023/04/08 13:21:33;;;;;;;16.98;16.08;;;;;;;;;;5040021;28;20496;-63
2023/04/08 13:23:58;;;;;;;16.55;15.65;;;;;;;;;;5042179;28;20021;-63
2023/04/08 13:26:23;;;;;;;17.58;16.58;;;;;;;;;;5043105;28;20028;-63
2023/04/08 13:28:51;;;;;;;17.98;16.88;;;;;;;;;;5052520;28;20457;-63
2023/04/08 13:31:16;;;;;;;17.10;16.10;;;;;;;;;;5052874;28;20596;-63
2023/04/08 13:33:42;;;;;;;19.05;17.77;;;;;;;;;;5042853;28;20104;-63
2023/04/08 13:36:07;;;;;;;16.88;15.98;;;;;;;;;;5051745;28;20040;-63
2023/04/08 13:38:33;;;;;;;17.10;16.10;;;;;;;;;;5051143;28;20439;-62
2023/04/08 13:40:58;;;;;;;17.33;16.35;;;;;;;;;;5051912;28;20021;-63
2023/04/08 13:43:23;;;;;;;18.23;17.13;;;;;;;;;;5052772;28;20440;-63
2023/04/08 13:45:49;;;;;;;18.52;17.38;;;;;;;;;;5052487;28;20025;-63
2023/04/08 13:48:14;;;;;;;17.38;16.38;;;;;;;;;;5051261;28;20412;-63
2023/04/08 13:50:41;;;;;;;17.83;16.77;;;;;;;;;;5047338;28;20052;-63
2023/04/08 13:53:06;;;;;;;16.60;15.75;;;;;;;;;;5051584;28;20033;-63
2023/04/08 13:55:32;;;;;;;17.92;16.88;;;;;;;;;;5050451;28;20091;-63
2023/04/08 13:57:57;;;;;;;18.13;17.02;;;;;;;;;;5051058;28;20067;-63
2023/04/08 14:00:24;;;;;;;18.33;17.23;;;;;;;;;;5052550;28;20023;-63
2023/04/08 14:02:50;;;;;;;18.30;17.20;;;;;;;;;;5043247;28;20377;-63
2023/04/08 14:05:15;;;;;;;19.80;18.42;;;;;;;;;;5048113;28;20029;-63
2023/04/08 14:07:41;;;;;;;17.67;16.63;;;;;;;;;;5054351;28;20036;-63
2023/04/08 14:10:06;;;;;;;17.80;16.70;;;;;;;;;;5052398;28;20017;-62